sensor_id;sensor_type;location;lat;lon;timestamp;pressure;altitude;pressure_sealevel;temperature;humidity
71643;BME280;59438;45.014;39.006;2023-03-14T00:02:09;101955.19;;;2.58;70.17
71643;BME280;59438;45.014;39.006;2023-03-14T00:04:36;101950.88;;;2.57;70.38
71643;BME280;59438;45.014;39.006;2023-03-14T00:07:02;101936.00;;;2.46;70.74
71643;BME280;59438;45.014;39.006;2023-03-14T00:09:30;101950.88;;;2.59;70.71
71643;BME280;59438;45.014;39.006;2023-03-14T00:11:57;101946.59;;;2.59;70.59
71643;BME280;59438;45.014;39.006;2023-03-14T00:14:23;101950.09;;;2.61;70.37
71643;BME280;59438;45.014;39.006;2023-03-14T00:16:50;101946.66;;;2.64;70.13
71643;BME280;59438;45.014;39.006;2023-03-14T00:19:16;101956.19;;;2.67;70.05
71643;BME280;59438;45.014;39.006;2023-03-14T00:21:42;101939.69;;;2.63;70.88
71643;BME280;59438;45.014;39.006;2023-03-14T00:24:09;101946.72;;;2.69;70.63
71643;BME280;59438;45.014;39.006;2023-03-14T00:26:36;101948.50;;;2.73;71.15
71643;BME280;59438;45.014;39.006;2023-03-14T00:29:03;101945.13;;;2.77;70.71
71643;BME280;59438;45.014;39.006;2023-03-14T00:31:29;101941.69;;;2.79;70.56
71643;BME280;59438;45.014;39.006;2023-03-14T00:33:56;101945.19;;;2.83;70.28
71643;BME280;59438;45.014;39.006;2023-03-14T00:36:22;101937.44;;;2.86;70.26
71643;BME280;59438;45.014;39.006;2023-03-14T00:38:50;101929.72;;;2.89;70.27
71643;BME280;59438;45.014;39.006;2023-03-14T00:41:18;101920.19;;;2.87;69.96
71643;BME280;59438;45.014;39.006;2023-03-14T00:43:46;101940.22;;;2.97;69.75
71643;BME280;59438;45.014;39.006;2023-03-14T00:46:13;101934.19;;;2.99;70.00
71643;BME280;59438;45.014;39.006;2023-03-14T00:48:40;101939.41;;;3.02;69.65
71643;BME280;59438;45.014;39.006;2023-03-14T00:51:07;101937.72;;;3.06;69.78
71643;BME280;59438;45.014;39.006;2023-03-14T00:53:36;101930.03;;;3.12;69.63
71643;BME280;59438;45.014;39.006;2023-03-14T00:56:03;101925.72;;;3.14;69.21
71643;BME280;59438;45.014;39.006;2023-03-14T00:58:30;101927.56;;;3.23;69.25
71643;BME280;59438;45.014;39.006;2023-03-14T01:00:58;101934.56;;;3.29;69.18
71643;BME280;59438;45.014;39.006;2023-03-14T01:03:24;101921.63;;;3.32;69.24
71643;BME280;59438;45.014;39.006;2023-03-14T01:05:51;101927.78;;;3.38;69.29
71643;BME280;59438;45.014;39.006;2023-03-14T01:08:17;101921.75;;;3.42;68.76
71643;BME280;59438;45.014;39.006;2023-03-14T01:10:43;101939.13;;;3.47;68.50
71643;BME280;59438;45.014;39.006;2023-03-14T01:13:10;101914.81;;;3.41;68.74
71643;BME280;59438;45.014;39.006;2023-03-14T01:15:37;101929.66;;;3.50;68.79
71643;BME280;59438;45.014;39.006;2023-03-14T01:18:05;101923.56;;;3.50;68.81
71643;BME280;59438;45.014;39.006;2023-03-14T01:20:31;101919.25;;;3.52;68.72
71643;BME280;59438;45.014;39.006;2023-03-14T01:22:58;101933.16;;;3.52;68.56
71643;BME280;59438;45.014;39.006;2023-03-14T01:25:24;101906.19;;;3.44;68.40
71643;BME280;59438;45.014;39.006;2023-03-14T01:27:50;101919.31;;;3.55;68.49
71643;BME280;59438;45.014;39.006;2023-03-14T01:30:17;101916.69;;;3.53;68.63
71643;BME280;59438;45.014;39.006;2023-03-14T01:32:43;101922.75;;;3.54;68.58
71643;BME280;59438;45.014;39.006;2023-03-14T01:35:11;101920.16;;;3.55;68.15
71643;BME280;59438;45.014;39.006;2023-03-14T01:37:37;101918.44;;;3.54;68.32
71643;BME280;59438;45.014;39.006;2023-03-14T01:40:04;101908.91;;;3.55;68.68
71643;BME280;59438;45.014;39.006;2023-03-14T01:42:31;101908.91;;;3.55;68.08
71643;BME280;59438;45.014;39.006;2023-03-14T01:44:58;101920.16;;;3.55;68.58
71643;BME280;59438;45.014;39.006;2023-03-14T01:47:25;101921.94;;;3.56;68.31
71643;BME280;59438;45.014;39.006;2023-03-14T01:49:55;101907.19;;;3.55;68.47
71643;BME280;59438;45.014;39.006;2023-03-14T01:52:26;101906.31;;;3.55;68.85
71643;BME280;59438;45.014;39.006;2023-03-14T01:54:56;101919.31;;;3.55;68.72
71643;BME280;59438;45.014;39.006;2023-03-14T01:57:27;101921.03;;;3.56;68.41
71643;BME280;59438;45.014;39.006;2023-03-14T01:59:58;101910.66;;;3.56;68.61
71643;BME280;59438;45.014;39.006;2023-03-14T02:02:28;101849.66;;;3.21;68.05
71643;BME280;59438;45.014;39.006;2023-03-14T02:04:55;101909.78;;;3.55;68.37
71643;BME280;59438;45.014;39.006;2023-03-14T02:07:26;101908.97;;;3.59;68.50
71643;BME280;59438;45.014;39.006;2023-03-14T02:09:56;101900.22;;;3.53;68.39
71643;BME280;59438;45.014;39.006;2023-03-14T02:12:23;101908.91;;;3.55;68.49
71643;BME280;59438;45.014;39.006;2023-03-14T02:14:50;101908.09;;;3.59;68.02
71643;BME280;59438;45.014;39.006;2023-03-14T02:17:18;101913.28;;;3.59;68.41
71643;BME280;59438;45.014;39.006;2023-03-14T02:20:09;101922.81;;;3.60;68.91
71643;BME280;59438;45.014;39.006;2023-03-14T02:22:43;101916.78;;;3.61;68.45
71643;BME280;59438;45.014;39.006;2023-03-14T02:25:14;101928.06;;;3.63;68.42
71643;BME280;59438;45.014;39.006;2023-03-14T02:27:45;101916.78;;;3.64;68.38
71643;BME280;59438;45.014;39.006;2023-03-14T02:30:15;101917.69;;;3.66;68.25
71643;BME280;59438;45.014;39.006;2023-03-14T02:32:45;101905.59;;;3.67;68.00
71643;BME280;59438;45.014;39.006;2023-03-14T02:35:14;101903.84;;;3.67;67.77
71643;BME280;59438;45.014;39.006;2023-03-14T02:37:45;101914.25;;;3.67;67.71
71643;BME280;59438;45.014;39.006;2023-03-14T02:40:12;101919.44;;;3.67;67.68
71643;BME280;59438;45.014;39.006;2023-03-14T02:42:38;101915.09;;;3.65;67.71
71643;BME280;59438;45.014;39.006;2023-03-14T02:45:36;101918.59;;;3.67;67.69
71643;BME280;59438;45.014;39.006;2023-03-14T02:48:05;101908.09;;;3.62;67.39
71643;BME280;59438;45.014;39.006;2023-03-14T02:50:33;101908.97;;;3.59;67.77
71643;BME280;59438;45.014;39.006;2023-03-14T02:53:00;101908.06;;;3.54;67.34
71643;BME280;59438;45.014;39.006;2023-03-14T02:55:27;101901.16;;;3.56;67.47
71643;BME280;59438;45.014;39.006;2023-03-14T02:57:53;101908.91;;;3.55;67.75
71643;BME280;59438;45.014;39.006;2023-03-14T03:00:20;101901.09;;;3.53;67.45
71643;BME280;59438;45.014;39.006;2023-03-14T03:02:48;101895.91;;;3.53;67.66
71643;BME280;59438;45.014;39.006;2023-03-14T03:05:14;101897.66;;;3.56;67.65
71643;BME280;59438;45.014;39.006;2023-03-14T03:07:40;101893.34;;;3.58;67.45
71643;BME280;59438;45.014;39.006;2023-03-14T03:10:08;101895.09;;;3.59;67.27
71643;BME280;59438;45.014;39.006;2023-03-14T03:12:35;101878.66;;;3.60;67.32
71643;BME280;59438;45.014;39.006;2023-03-14T03:15:01;101887.31;;;3.59;67.14
71643;BME280;59438;45.014;39.006;2023-03-14T03:17:27;101896.91;;;3.65;67.11
71643;BME280;59438;45.014;39.006;2023-03-14T03:19:55;101898.59;;;3.64;67.09
71643;BME280;59438;45.014;39.006;2023-03-14T03:22:21;101903.00;;;3.67;67.00
71643;BME280;59438;45.014;39.006;2023-03-14T03:24:48;101908.19;;;3.68;67.26
71643;BME280;59438;45.014;39.006;2023-03-14T03:27:15;101902.13;;;3.68;67.34
71643;BME280;59438;45.014;39.006;2023-03-14T03:29:41;101904.75;;;3.71;67.22
71643;BME280;59438;45.014;39.006;2023-03-14T03:32:07;101892.59;;;3.70;66.81
71643;BME280;59438;45.014;39.006;2023-03-14T03:34:34;101877.78;;;3.59;67.02
71643;BME280;59438;45.014;39.006;2023-03-14T03:37:01;101903.03;;;3.74;66.57
71643;BME280;59438;45.014;39.006;2023-03-14T03:39:28;101897.00;;;3.75;66.72
71643;BME280;59438;45.014;39.006;2023-03-14T03:41:54;101895.25;;;3.74;66.71
71643;BME280;59438;45.014;39.006;2023-03-14T03:44:21;101910.03;;;3.77;66.75
71643;BME280;59438;45.014;39.006;2023-03-14T03:46:47;101912.63;;;3.78;66.45
71643;BME280;59438;45.014;39.006;2023-03-14T03:49:13;101894.38;;;3.71;66.64
71643;BME280;59438;45.014;39.006;2023-03-14T03:51:40;101903.13;;;3.79;66.49
71643;BME280;59438;45.014;39.006;2023-03-14T03:54:08;101901.38;;;3.79;66.37
71643;BME280;59438;45.014;39.006;2023-03-14T03:56:34;101906.59;;;3.81;66.45
71643;BME280;59438;45.014;39.006;2023-03-14T03:59:00;101898.78;;;3.82;66.40
71643;BME280;59438;45.014;39.006;2023-03-14T04:01:27;101898.78;;;3.82;66.55
71643;BME280;59438;45.014;39.006;2023-03-14T04:03:53;101899.69;;;3.84;66.20
71643;BME280;59438;45.014;39.006;2023-03-14T04:06:19;101897.13;;;3.88;66.05
71643;BME280;59438;45.014;39.006;2023-03-14T04:08:46;101903.25;;;3.91;66.42
71643;BME280;59438;45.014;39.006;2023-03-14T04:11:14;101907.53;;;3.91;66.13
71643;BME280;59438;45.014;39.006;2023-03-14T04:13:40;101911.91;;;3.92;66.14
71643;BME280;59438;45.014;39.006;2023-03-14T04:16:14;101900.56;;;3.87;65.96
71643;BME280;59438;45.014;39.006;2023-03-14T04:18:41;101899.78;;;3.94;66.11
71643;BME280;59438;45.014;39.006;2023-03-14T04:21:07;101897.19;;;3.94;66.05
71643;BME280;59438;45.014;39.006;2023-03-14T04:23:33;101898.88;;;3.90;65.95
71643;BME280;59438;45.014;39.006;2023-03-14T04:26:00;101900.69;;;3.96;65.87
71643;BME280;59438;45.014;39.006;2023-03-14T04:28:28;101906.72;;;3.95;65.85
71643;BME280;59438;45.014;39.006;2023-03-14T04:30:54;101883.22;;;3.81;66.09
71643;BME280;59438;45.014;39.006;2023-03-14T04:33:21;101900.69;;;3.99;66.14
71643;BME280;59438;45.014;39.006;2023-03-14T04:35:47;101903.28;;;3.99;65.83
71643;BME280;59438;45.014;39.006;2023-03-14T04:38:14;101906.78;;;4.01;65.86
71643;BME280;59438;45.014;39.006;2023-03-14T04:40:40;101884.19;;;3.97;65.82
71643;BME280;59438;45.014;39.006;2023-03-14T04:43:07;101880.75;;;3.98;66.01
71643;BME280;59438;45.014;39.006;2023-03-14T04:45:35;101885.13;;;4.00;65.73
71643;BME280;59438;45.014;39.006;2023-03-14T04:48:02;101894.63;;;4.01;66.01
71643;BME280;59438;45.014;39.006;2023-03-14T04:50:28;101889.47;;;4.03;66.02
71643;BME280;59438;45.014;39.006;2023-03-14T04:52:54;101888.56;;;3.98;65.99
71643;BME280;59438;45.014;39.006;2023-03-14T04:55:21;101883.38;;;3.98;65.90
71643;BME280;59438;45.014;39.006;2023-03-14T04:57:47;101917.25;;;4.12;65.68
71643;BME280;59438;45.014;39.006;2023-03-14T05:00:13;101898.19;;;4.08;65.95
71643;BME280;59438;45.014;39.006;2023-03-14T05:02:41;101869.47;;;3.97;65.44
71643;BME280;59438;45.014;39.006;2023-03-14T05:05:08;101896.41;;;4.04;65.53
71643;BME280;59438;45.014;39.006;2023-03-14T05:07:34;101889.44;;;4.00;65.85
71643;BME280;59438;45.014;39.006;2023-03-14T05:10:01;101885.97;;;3.98;66.06
71643;BME280;59438;45.014;39.006;2023-03-14T05:12:27;101880.72;;;3.93;65.97
71643;BME280;59438;45.014;39.006;2023-03-14T05:14:53;101889.44;;;3.98;65.89
71643;BME280;59438;45.014;39.006;2023-03-14T05:17:20;101886.81;;;3.98;65.89
71643;BME280;59438;45.014;39.006;2023-03-14T05:19:47;101886.78;;;3.95;66.00
71643;BME280;59438;45.014;39.006;2023-03-14T05:22:14;101879.00;;;3.97;66.00
71643;BME280;59438;45.014;39.006;2023-03-14T05:24:40;101889.41;;;3.97;65.96
71643;BME280;59438;45.014;39.006;2023-03-14T05:27:06;101890.28;;;3.96;65.83
71643;BME280;59438;45.014;39.006;2023-03-14T05:29:33;101888.56;;;3.98;66.07
71643;BME280;59438;45.014;39.006;2023-03-14T05:31:59;101875.53;;;3.96;66.34
71643;BME280;59438;45.014;39.006;2023-03-14T05:34:25;101871.25;;;4.00;65.81
71643;BME280;59438;45.014;39.006;2023-03-14T05:36:53;101883.47;;;4.10;65.88
71643;BME280;59438;45.014;39.006;2023-03-14T05:39:20;101874.81;;;4.13;65.96
71643;BME280;59438;45.014;39.006;2023-03-14T05:41:46;101881.75;;;4.14;65.62
71643;BME280;59438;45.014;39.006;2023-03-14T05:44:12;101880.94;;;4.19;65.91
71643;BME280;59438;45.014;39.006;2023-03-14T05:46:39;101872.28;;;4.20;65.40
71643;BME280;59438;45.014;39.006;2023-03-14T05:49:05;101871.41;;;4.21;65.71
71643;BME280;59438;45.014;39.006;2023-03-14T05:51:31;101888.81;;;4.30;65.60
71643;BME280;59438;45.014;39.006;2023-03-14T05:53:59;101890.56;;;4.34;65.54
71643;BME280;59438;45.014;39.006;2023-03-14T05:56:25;101882.78;;;4.36;65.73
71643;BME280;59438;45.014;39.006;2023-03-14T05:58:52;101886.34;;;4.46;65.42
71643;BME280;59438;45.014;39.006;2023-03-14T06:01:18;101890.72;;;4.51;65.68
71643;BME280;59438;45.014;39.006;2023-03-14T06:03:44;101889.00;;;4.53;65.39
71643;BME280;59438;45.014;39.006;2023-03-14T06:06:11;101904.66;;;4.59;65.61
71643;BME280;59438;45.014;39.006;2023-03-14T06:08:37;101882.16;;;4.71;65.45
71643;BME280;59438;45.014;39.006;2023-03-14T06:11:05;101885.69;;;4.83;65.06
71643;BME280;59438;45.014;39.006;2023-03-14T06:13:32;101889.22;;;4.89;64.47
71643;BME280;59438;45.014;39.006;2023-03-14T06:15:58;101880.53;;;4.91;65.20
71643;BME280;59438;45.014;39.006;2023-03-14T06:18:24;101880.56;;;4.94;64.89
71643;BME280;59438;45.014;39.006;2023-03-14T06:20:53;101877.94;;;4.96;64.62
71643;BME280;59438;45.014;39.006;2023-03-14T06:23:20;101882.28;;;4.95;64.65
71643;BME280;59438;45.014;39.006;2023-03-14T06:25:46;101864.06;;;4.92;64.62
71643;BME280;59438;45.014;39.006;2023-03-14T06:28:14;101872.72;;;4.91;64.39
71643;BME280;59438;45.014;39.006;2023-03-14T06:30:40;101857.97;;;4.84;64.39
71643;BME280;59438;45.014;39.006;2023-03-14T06:33:07;101864.03;;;4.86;64.65
71643;BME280;59438;45.014;39.006;2023-03-14T06:35:33;101867.50;;;4.87;64.56
71643;BME280;59438;45.014;39.006;2023-03-14T06:38:00;101864.03;;;4.88;64.37
71643;BME280;59438;45.014;39.006;2023-03-14T06:40:26;101856.25;;;4.91;64.44
71643;BME280;59438;45.014;39.006;2023-03-14T06:42:52;101861.47;;;4.92;64.94
71643;BME280;59438;45.014;39.006;2023-03-14T06:45:20;101858.88;;;4.95;64.59
71643;BME280;59438;45.014;39.006;2023-03-14T06:47:47;101826.69;;;4.82;64.29
71643;BME280;59438;45.014;39.006;2023-03-14T06:50:13;101847.59;;;4.96;64.58
71643;BME280;59438;45.014;39.006;2023-03-14T06:52:39;101851.06;;;5.00;64.88
71643;BME280;59438;45.014;39.006;2023-03-14T06:55:07;101838.94;;;5.03;64.43
71643;BME280;59438;45.014;39.006;2023-03-14T06:57:33;101826.75;;;4.98;64.39
71643;BME280;59438;45.014;39.006;2023-03-14T06:59:59;101829.41;;;5.05;64.64
71643;BME280;59438;45.014;39.006;2023-03-14T07:02:27;101812.88;;;4.97;64.63
71643;BME280;59438;45.014;39.006;2023-03-14T07:04:53;101827.69;;;5.18;64.24
71643;BME280;59438;45.014;39.006;2023-03-14T07:07:20;101834.66;;;5.22;64.42
71643;BME280;59438;45.014;39.006;2023-03-14T07:09:46;101812.91;;;5.14;63.97
71643;BME280;59438;45.014;39.006;2023-03-14T07:12:12;101841.66;;;5.39;64.24
71643;BME280;59438;45.014;39.006;2023-03-14T07:14:39;101844.28;;;5.47;64.65
71643;BME280;59438;45.014;39.006;2023-03-14T07:17:05;101833.00;;;5.52;64.36
71643;BME280;59438;45.014;39.006;2023-03-14T07:19:33;101804.31;;;5.43;63.64
71643;BME280;59438;45.014;39.006;2023-03-14T07:21:59;101827.81;;;5.63;64.50
71643;BME280;59438;45.014;39.006;2023-03-14T07:24:25;101824.31;;;5.70;63.98
71643;BME280;59438;45.014;39.006;2023-03-14T07:26:52;101821.72;;;5.76;63.39
71643;BME280;59438;45.014;39.006;2023-03-14T07:29:18;101836.50;;;5.82;63.23
71643;BME280;59438;45.014;39.006;2023-03-14T07:31:44;101824.34;;;5.89;63.25
71643;BME280;59438;45.014;39.006;2023-03-14T07:34:11;101834.81;;;5.98;63.30
71643;BME280;59438;45.014;39.006;2023-03-14T07:36:38;101819.16;;;5.96;63.01
71643;BME280;59438;45.014;39.006;2023-03-14T07:39:05;101825.25;;;6.06;63.71
71643;BME280;59438;45.014;39.006;2023-03-14T07:41:31;101814.81;;;6.09;63.56
71643;BME280;59438;45.014;39.006;2023-03-14T07:43:58;101808.72;;;6.16;63.18
71643;BME280;59438;45.014;39.006;2023-03-14T07:46:24;101817.44;;;6.14;63.26
71643;BME280;59438;45.014;39.006;2023-03-14T07:48:51;101806.09;;;6.19;62.93
71643;BME280;59438;45.014;39.006;2023-03-14T07:51:17;101812.22;;;6.20;63.27
71643;BME280;59438;45.014;39.006;2023-03-14T07:53:45;101802.63;;;6.17;62.39
71643;BME280;59438;45.014;39.006;2023-03-14T07:56:11;101811.31;;;6.13;62.75
71643;BME280;59438;45.014;39.006;2023-03-14T07:58:37;101811.31;;;6.19;63.08
71643;BME280;59438;45.014;39.006;2023-03-14T08:01:04;101812.22;;;6.20;62.79
71643;BME280;59438;45.014;39.006;2023-03-14T08:03:30;101808.72;;;6.22;62.95
71643;BME280;59438;45.014;39.006;2023-03-14T08:05:57;101810.47;;;6.19;62.53
71643;BME280;59438;45.014;39.006;2023-03-14T08:08:23;101813.94;;;6.29;62.98
71643;BME280;59438;45.014;39.006;2023-03-14T08:10:51;101800.88;;;6.29;62.44
71643;BME280;59438;45.014;39.006;2023-03-14T08:13:17;101805.22;;;6.39;63.40
71643;BME280;59438;45.014;39.006;2023-03-14T08:15:47;101812.16;;;6.44;62.52
71643;BME280;59438;45.014;39.006;2023-03-14T08:18:14;101800.00;;;6.40;62.85
71643;BME280;59438;45.014;39.006;2023-03-14T08:20:41;101799.09;;;6.55;62.95
71643;BME280;59438;45.014;39.006;2023-03-14T08:23:07;101811.22;;;6.61;62.16
71643;BME280;59438;45.014;39.006;2023-03-14T08:25:33;101802.53;;;6.59;61.87
71643;BME280;59438;45.014;39.006;2023-03-14T08:28:01;101797.31;;;6.62;62.87
71643;BME280;59438;45.014;39.006;2023-03-14T08:30:28;101804.28;;;6.61;62.34
71643;BME280;59438;45.014;39.006;2023-03-14T08:32:56;101794.72;;;6.63;62.42
71643;BME280;59438;45.014;39.006;2023-03-14T08:35:22;101809.50;;;6.68;62.74
71643;BME280;59438;45.014;39.006;2023-03-14T08:37:49;101807.72;;;6.66;62.42
71643;BME280;59438;45.014;39.006;2023-03-14T08:40:15;101815.56;;;6.66;62.79
71643;BME280;59438;45.014;39.006;2023-03-14T08:42:42;101799.91;;;6.65;62.34
71643;BME280;59438;45.014;39.006;2023-03-14T08:45:12;101799.06;;;6.57;62.05
71643;BME280;59438;45.014;39.006;2023-03-14T08:47:39;101798.16;;;6.61;62.64
71643;BME280;59438;45.014;39.006;2023-03-14T08:50:07;101786.91;;;6.42;62.42
71643;BME280;59438;45.014;39.006;2023-03-14T08:52:33;101809.53;;;6.55;62.77
71643;BME280;59438;45.014;39.006;2023-03-14T08:55:00;101808.66;;;6.53;62.34
71643;BME280;59438;45.014;39.006;2023-03-14T08:57:26;101805.19;;;6.48;63.52
71643;BME280;59438;45.014;39.006;2023-03-14T08:59:53;101805.19;;;6.48;62.97
71643;BME280;59438;45.014;39.006;2023-03-14T09:02:21;101815.63;;;6.50;63.52
71643;BME280;59438;45.014;39.006;2023-03-14T09:04:47;101817.38;;;6.43;64.34
71643;BME280;59438;45.014;39.006;2023-03-14T09:07:14;101786.97;;;6.19;64.28
71643;BME280;59438;45.014;39.006;2023-03-14T09:09:40;101806.97;;;6.21;64.63
71643;BME280;59438;45.014;39.006;2023-03-14T09:12:07;101805.22;;;6.11;65.14
71643;BME280;59438;45.014;39.006;2023-03-14T09:14:33;101816.53;;;6.01;65.48
71643;BME280;59438;45.014;39.006;2023-03-14T09:17:00;101803.50;;;5.87;65.29
71643;BME280;59438;45.014;39.006;2023-03-14T09:19:28;101813.06;;;5.91;65.27
71643;BME280;59438;45.014;39.006;2023-03-14T09:21:54;101807.84;;;5.90;65.26
71643;BME280;59438;45.014;39.006;2023-03-14T09:24:21;101806.09;;;5.82;65.42
71643;BME280;59438;45.014;39.006;2023-03-14T09:26:47;101796.53;;;5.83;66.05
71643;BME280;59438;45.014;39.006;2023-03-14T09:29:13;101799.16;;;5.94;65.49
71643;BME280;59438;45.014;39.006;2023-03-14T09:31:40;101785.25;;;5.96;65.32
71643;BME280;59438;45.014;39.006;2023-03-14T09:34:06;101748.72;;;5.85;65.44
71643;BME280;59438;45.014;39.006;2023-03-14T09:36:34;101779.16;;;6.00;66.39
71643;BME280;59438;45.014;39.006;2023-03-14T09:39:00;101800.91;;;6.09;66.33
71643;BME280;59438;45.014;39.006;2023-03-14T09:41:29;101795.66;;;6.19;65.72
71643;BME280;59438;45.014;39.006;2023-03-14T09:44:03;101797.41;;;6.25;65.86
71643;BME280;59438;45.014;39.006;2023-03-14T09:46:31;101775.66;;;6.31;64.75
71643;BME280;59438;45.014;39.006;2023-03-14T09:49:00;101772.16;;;6.33;64.72
71643;BME280;59438;45.014;39.006;2023-03-14T09:51:27;101772.16;;;6.39;65.12
71643;BME280;59438;45.014;39.006;2023-03-14T09:53:55;101765.22;;;6.38;65.18
71643;BME280;59438;45.014;39.006;2023-03-14T09:56:23;101771.22;;;6.54;64.31
71643;BME280;59438;45.014;39.006;2023-03-14T09:58:53;101759.03;;;6.59;63.42
71643;BME280;59438;45.014;39.006;2023-03-14T10:01:24;101751.22;;;6.58;63.99
71643;BME280;59438;45.014;39.006;2023-03-14T10:03:54;101745.97;;;6.58;63.18
71643;BME280;59438;45.014;39.006;2023-03-14T10:06:22;101742.50;;;6.57;62.87
71643;BME280;59438;45.014;39.006;2023-03-14T10:08:50;101741.56;;;6.72;63.54
71643;BME280;59438;45.014;39.006;2023-03-14T10:11:18;101743.31;;;6.78;63.39
71643;BME280;59438;45.014;39.006;2023-03-14T10:13:50;101715.47;;;6.71;63.04
71643;BME280;59438;45.014;39.006;2023-03-14T10:16:16;101743.16;;;7.01;62.89
71643;BME280;59438;45.014;39.006;2023-03-14T10:18:44;101738.78;;;7.11;62.67
71643;BME280;59438;45.014;39.006;2023-03-14T10:21:20;101736.97;;;7.17;61.93
71643;BME280;59438;45.014;39.006;2023-03-14T10:23:47;101745.63;;;7.22;62.93
71643;BME280;59438;45.014;39.006;2023-03-14T10:26:15;101707.47;;;7.04;61.98
71643;BME280;59438;45.014;39.006;2023-03-14T10:28:45;101744.78;;;7.25;62.12
71643;BME280;59438;45.014;39.006;2023-03-14T10:31:13;101750.88;;;7.25;62.39
71643;BME280;59438;45.014;39.006;2023-03-14T10:33:40;101751.75;;;7.23;62.24
71643;BME280;59438;45.014;39.006;2023-03-14T10:36:16;101768.28;;;7.22;62.20
71643;BME280;59438;45.014;39.006;2023-03-14T10:38:43;101773.56;;;7.16;61.65
71643;BME280;59438;45.014;39.006;2023-03-14T10:41:16;101774.41;;;7.19;62.15
71643;BME280;59438;45.014;39.006;2023-03-14T10:43:45;101751.78;;;7.17;61.69
71643;BME280;59438;45.014;39.006;2023-03-14T10:46:17;101750.00;;;7.20;62.37
71643;BME280;59438;45.014;39.006;2023-03-14T10:48:44;101746.56;;;7.17;62.14
71643;BME280;59438;45.014;39.006;2023-03-14T10:51:12;101732.69;;;7.05;61.81
71643;BME280;59438;45.014;39.006;2023-03-14T10:53:45;101752.63;;;7.22;62.16
71643;BME280;59438;45.014;39.006;2023-03-14T10:56:13;101739.56;;;7.23;62.26
71643;BME280;59438;45.014;39.006;2023-03-14T10:58:41;101736.94;;;7.23;61.87
71643;BME280;59438;45.014;39.006;2023-03-14T11:01:27;101726.47;;;7.25;61.45
71643;BME280;59438;45.014;39.006;2023-03-14T11:03:59;101734.28;;;7.28;61.88
71643;BME280;59438;45.014;39.006;2023-03-14T11:06:28;101736.00;;;7.35;62.09
71643;BME280;59438;45.014;39.006;2023-03-14T11:09:02;101724.63;;;7.36;61.78
71643;BME280;59438;45.014;39.006;2023-03-14T11:11:32;101727.25;;;7.36;61.87
71643;BME280;59438;45.014;39.006;2023-03-14T11:14:07;101734.25;;;7.34;61.68
71643;BME280;59438;45.014;39.006;2023-03-14T11:16:51;101731.63;;;7.36;62.00
71643;BME280;59438;45.014;39.006;2023-03-14T11:19:37;101736.84;;;7.37;61.50
71643;BME280;59438;45.014;39.006;2023-03-14T11:22:16;101733.34;;;7.41;61.71
71643;BME280;59438;45.014;39.006;2023-03-14T11:25:00;101717.66;;;7.41;61.24
71643;BME280;59438;45.014;39.006;2023-03-14T11:27:38;101723.59;;;7.57;61.00
71643;BME280;59438;45.014;39.006;2023-03-14T11:30:17;101716.56;;;7.67;61.35
71643;BME280;59438;45.014;39.006;2023-03-14T11:32:46;101706.84;;;7.80;61.28
71643;BME280;59438;45.014;39.006;2023-03-14T11:35:21;101690.22;;;7.84;61.10
71643;BME280;59438;45.014;39.006;2023-03-14T11:37:53;101692.78;;;7.88;60.81
71643;BME280;59438;45.014;39.006;2023-03-14T11:40:21;101698.88;;;7.92;61.20
71643;BME280;59438;45.014;39.006;2023-03-14T11:42:56;101707.50;;;7.99;60.85
71643;BME280;59438;45.014;39.006;2023-03-14T11:45:29;101699.59;;;8.06;60.71
71643;BME280;59438;45.014;39.006;2023-03-14T11:48:09;101663.09;;;7.96;60.78
71643;BME280;59438;45.014;39.006;2023-03-14T11:50:38;101689.84;;;8.22;60.77
71643;BME280;59438;45.014;39.006;2023-03-14T11:53:10;101687.22;;;8.22;60.46
71643;BME280;59438;45.014;39.006;2023-03-14T11:55:39;101691.44;;;8.34;60.26
71643;BME280;59438;45.014;39.006;2023-03-14T11:58:11;101677.47;;;8.34;59.92
71643;BME280;59438;45.014;39.006;2023-03-14T12:00:40;101681.84;;;8.33;60.66
71643;BME280;59438;45.014;39.006;2023-03-14T12:03:13;101671.38;;;8.32;60.49
71643;BME280;59438;45.014;39.006;2023-03-14T12:05:48;101680.97;;;8.33;60.23
71643;BME280;59438;45.014;39.006;2023-03-14T12:11:19;101662.59;;;8.36;60.50
71643;BME280;59438;45.014;39.006;2023-03-14T12:13:49;101619.16;;;8.21;60.38
71643;BME280;59438;45.014;39.006;2023-03-14T12:16:34;101645.09;;;8.44;60.54
71643;BME280;59438;45.014;39.006;2023-03-14T12:19:31;101626.81;;;8.42;60.21
71643;BME280;59438;45.014;39.006;2023-03-14T12:22:06;101615.44;;;8.43;60.41
71643;BME280;59438;45.014;39.006;2023-03-14T12:24:36;101614.44;;;8.52;60.37
71643;BME280;59438;45.014;39.006;2023-03-14T12:27:05;101617.88;;;8.56;60.06
71643;BME280;59438;45.014;39.006;2023-03-14T12:29:32;101625.66;;;8.62;60.17
71643;BME280;59438;45.014;39.006;2023-03-14T12:32:22;101618.63;;;8.64;59.93
71643;BME280;59438;45.014;39.006;2023-03-14T12:34:51;101634.34;;;8.64;60.23
71643;BME280;59438;45.014;39.006;2023-03-14T12:37:22;101613.50;;;8.56;60.19
71643;BME280;59438;45.014;39.006;2023-03-14T12:40:06;101621.06;;;8.78;59.60
71643;BME280;59438;45.014;39.006;2023-03-14T12:42:45;101607.00;;;8.83;59.69
71643;BME280;59438;45.014;39.006;2023-03-14T12:45:26;101619.88;;;8.97;59.59
71643;BME280;59438;45.014;39.006;2023-03-14T12:48:03;101625.81;;;9.08;59.40
71643;BME280;59438;45.014;39.006;2023-03-14T12:50:36;101606.38;;;9.20;60.46
71643;BME280;59438;45.014;39.006;2023-03-14T12:53:28;101584.63;;;9.17;59.56
71643;BME280;59438;45.014;39.006;2023-03-14T12:56:06;101590.59;;;9.25;59.04
71643;BME280;59438;45.014;39.006;2023-03-14T12:58:39;101601.97;;;9.24;59.75
71643;BME280;59438;45.014;39.006;2023-03-14T13:01:16;101587.06;;;9.26;59.29